sensor_id;sensor_type;location;lat;lon;timestamp;P1;durP1;ratioP1;P2;durP2;ratioP2
17441;SDS011;8838;50.144;8.176;2023-02-11T00:02:00;59.77;;;28.70;;
17441;SDS011;8838;50.144;8.176;2023-02-11T00:04:28;54.80;;;27.20;;
17441;SDS011;8838;50.144;8.176;2023-02-11T00:06:55;55.97;;;26.67;;
17441;SDS011;8838;50.144;8.176;2023-02-11T00:09:22;49.33;;;27.00;;
17441;SDS011;8838;50.144;8.176;2023-02-11T00:11:49;55.97;;;27.10;;
17441;SDS011;8838;50.144;8.176;2023-02-11T00:14:16;51.40;;;26.60;;
17441;SDS011;8838;50.144;8.176;2023-02-11T00:16:42;58.60;;;28.10;;
17441;SDS011;8838;50.144;8.176;2023-02-11T00:19:11;53.07;;;26.77;;
17441;SDS011;8838;50.144;8.176;2023-02-11T00:21:37;53.63;;;26.73;;
17441;SDS011;8838;50.144;8.176;2023-02-11T00:24:05;53.17;;;26.50;;
17441;SDS011;8838;50.144;8.176;2023-02-11T00:26:33;50.83;;;26.07;;
17441;SDS011;8838;50.144;8.176;2023-02-11T00:29:00;52.43;;;26.97;;
17441;SDS011;8838;50.144;8.176;2023-02-11T00:31:27;56.00;;;26.93;;
17441;SDS011;8838;50.144;8.176;2023-02-11T00:33:54;46.53;;;25.80;;
17441;SDS011;8838;50.144;8.176;2023-02-11T00:36:23;48.87;;;26.80;;
17441;SDS011;8838;50.144;8.176;2023-02-11T00:38:52;52.60;;;26.93;;
17441;SDS011;8838;50.144;8.176;2023-02-11T00:41:20;47.07;;;24.80;;
17441;SDS011;8838;50.144;8.176;2023-02-11T00:43:47;51.90;;;26.17;;
17441;SDS011;8838;50.144;8.176;2023-02-11T00:46:15;44.67;;;23.90;;
17441;SDS011;8838;50.144;8.176;2023-02-11T00:48:42;47.93;;;26.90;;
17441;SDS011;8838;50.144;8.176;2023-02-11T00:51:09;48.57;;;25.50;;
17441;SDS011;8838;50.144;8.176;2023-02-11T00:53:37;46.70;;;25.17;;
17441;SDS011;8838;50.144;8.176;2023-02-11T00:56:04;47.23;;;25.77;;
17441;SDS011;8838;50.144;8.176;2023-02-11T00:58:32;48.67;;;26.30;;
17441;SDS011;8838;50.144;8.176;2023-02-11T01:00:58;47.23;;;26.10;;
17441;SDS011;8838;50.144;8.176;2023-02-11T01:03:25;52.57;;;27.30;;
17441;SDS011;8838;50.144;8.176;2023-02-11T01:05:52;48.37;;;26.13;;
17441;SDS011;8838;50.144;8.176;2023-02-11T01:08:20;47.07;;;25.83;;
17441;SDS011;8838;50.144;8.176;2023-02-11T01:10:53;45.77;;;25.43;;
17441;SDS011;8838;50.144;8.176;2023-02-11T01:13:21;47.67;;;25.30;;
17441;SDS011;8838;50.144;8.176;2023-02-11T01:15:48;53.13;;;26.37;;
17441;SDS011;8838;50.144;8.176;2023-02-11T01:18:15;45.03;;;24.93;;
17441;SDS011;8838;50.144;8.176;2023-02-11T01:20:42;46.57;;;25.67;;
17441;SDS011;8838;50.144;8.176;2023-02-11T01:23:09;48.57;;;25.60;;
17441;SDS011;8838;50.144;8.176;2023-02-11T01:25:36;48.57;;;26.23;;
17441;SDS011;8838;50.144;8.176;2023-02-11T01:28:05;49.00;;;25.43;;
17441;SDS011;8838;50.144;8.176;2023-02-11T01:30:37;46.13;;;25.30;;
17441;SDS011;8838;50.144;8.176;2023-02-11T01:33:04;48.53;;;24.97;;
17441;SDS011;8838;50.144;8.176;2023-02-11T01:35:31;48.50;;;26.57;;
17441;SDS011;8838;50.144;8.176;2023-02-11T01:37:58;44.20;;;24.13;;
17441;SDS011;8838;50.144;8.176;2023-02-11T01:40:24;45.03;;;24.43;;
17441;SDS011;8838;50.144;8.176;2023-02-11T01:42:51;46.10;;;25.30;;
17441;SDS011;8838;50.144;8.176;2023-02-11T01:45:41;44.67;;;24.33;;
17441;SDS011;8838;50.144;8.176;2023-02-11T01:48:23;46.37;;;23.97;;
17441;SDS011;8838;50.144;8.176;2023-02-11T01:50:54;45.63;;;24.93;;
17441;SDS011;8838;50.144;8.176;2023-02-11T01:53:26;44.13;;;24.47;;
17441;SDS011;8838;50.144;8.176;2023-02-11T01:56:12;44.90;;;24.70;;
17441;SDS011;8838;50.144;8.176;2023-02-11T01:58:58;46.33;;;25.33;;
17441;SDS011;8838;50.144;8.176;2023-02-11T02:01:31;45.53;;;24.43;;
17441;SDS011;8838;50.144;8.176;2023-02-11T02:04:00;47.10;;;25.73;;
17441;SDS011;8838;50.144;8.176;2023-02-11T02:06:31;45.10;;;23.80;;
17441;SDS011;8838;50.144;8.176;2023-02-11T02:09:02;46.33;;;24.57;;
17441;SDS011;8838;50.144;8.176;2023-02-11T02:11:31;43.97;;;24.50;;
17441;SDS011;8838;50.144;8.176;2023-02-11T02:13:58;41.23;;;23.40;;
17441;SDS011;8838;50.144;8.176;2023-02-11T02:16:25;44.07;;;22.33;;
17441;SDS011;8838;50.144;8.176;2023-02-11T02:19:02;43.20;;;22.50;;
17441;SDS011;8838;50.144;8.176;2023-02-11T02:25:01;47.50;;;24.37;;
17441;SDS011;8838;50.144;8.176;2023-02-11T02:27:48;46.63;;;24.03;;
17441;SDS011;8838;50.144;8.176;2023-02-11T02:33:31;45.03;;;24.10;;
17441;SDS011;8838;50.144;8.176;2023-02-11T02:36:08;45.03;;;24.40;;
17441;SDS011;8838;50.144;8.176;2023-02-11T02:38:42;55.37;;;25.47;;
17441;SDS011;8838;50.144;8.176;2023-02-11T02:41:14;48.20;;;24.60;;
17441;SDS011;8838;50.144;8.176;2023-02-11T02:43:44;47.03;;;24.63;;
17441;SDS011;8838;50.144;8.176;2023-02-11T02:46:14;48.17;;;26.17;;
17441;SDS011;8838;50.144;8.176;2023-02-11T02:48:45;46.00;;;24.50;;
17441;SDS011;8838;50.144;8.176;2023-02-11T02:51:16;45.37;;;25.83;;
17441;SDS011;8838;50.144;8.176;2023-02-11T02:54:13;46.17;;;25.57;;
17441;SDS011;8838;50.144;8.176;2023-02-11T02:57:03;46.43;;;24.53;;
17441;SDS011;8838;50.144;8.176;2023-02-11T02:59:45;41.97;;;23.83;;
17441;SDS011;8838;50.144;8.176;2023-02-11T03:02:23;51.23;;;24.87;;
17441;SDS011;8838;50.144;8.176;2023-02-11T03:04:56;49.63;;;24.40;;
17441;SDS011;8838;50.144;8.176;2023-02-11T03:07:34;39.70;;;22.20;;
17441;SDS011;8838;50.144;8.176;2023-02-11T03:10:07;45.13;;;24.37;;
17441;SDS011;8838;50.144;8.176;2023-02-11T03:12:37;43.90;;;23.50;;
17441;SDS011;8838;50.144;8.176;2023-02-11T03:15:06;46.20;;;25.07;;
17441;SDS011;8838;50.144;8.176;2023-02-11T03:17:34;45.50;;;24.60;;
17441;SDS011;8838;50.144;8.176;2023-02-11T03:20:05;50.00;;;25.67;;
17441;SDS011;8838;50.144;8.176;2023-02-11T03:22:37;44.40;;;24.97;;
17441;SDS011;8838;50.144;8.176;2023-02-11T03:25:08;47.90;;;24.87;;
17441;SDS011;8838;50.144;8.176;2023-02-11T03:27:37;46.43;;;25.17;;
17441;SDS011;8838;50.144;8.176;2023-02-11T03:30:09;48.03;;;25.50;;
17441;SDS011;8838;50.144;8.176;2023-02-11T03:32:40;47.47;;;24.93;;
17441;SDS011;8838;50.144;8.176;2023-02-11T03:35:14;49.67;;;25.43;;
17441;SDS011;8838;50.144;8.176;2023-02-11T03:37:48;45.27;;;24.77;;
17441;SDS011;8838;50.144;8.176;2023-02-11T03:40:18;53.07;;;24.83;;
17441;SDS011;8838;50.144;8.176;2023-02-11T03:42:47;47.83;;;25.40;;
17441;SDS011;8838;50.144;8.176;2023-02-11T03:45:19;43.67;;;23.87;;
17441;SDS011;8838;50.144;8.176;2023-02-11T03:47:49;44.93;;;23.77;;
17441;SDS011;8838;50.144;8.176;2023-02-11T03:50:21;42.73;;;23.80;;
17441;SDS011;8838;50.144;8.176;2023-02-11T03:52:49;46.20;;;24.67;;
17441;SDS011;8838;50.144;8.176;2023-02-11T03:55:17;41.30;;;23.70;;
17441;SDS011;8838;50.144;8.176;2023-02-11T03:57:46;47.80;;;25.17;;
17441;SDS011;8838;50.144;8.176;2023-02-11T04:00:13;42.57;;;23.17;;
17441;SDS011;8838;50.144;8.176;2023-02-11T04:02:40;45.83;;;24.83;;
17441;SDS011;8838;50.144;8.176;2023-02-11T04:05:09;42.77;;;23.97;;
17441;SDS011;8838;50.144;8.176;2023-02-11T04:07:41;45.47;;;24.30;;
17441;SDS011;8838;50.144;8.176;2023-02-11T04:10:07;43.23;;;24.07;;
17441;SDS011;8838;50.144;8.176;2023-02-11T04:12:36;51.27;;;26.13;;
17441;SDS011;8838;50.144;8.176;2023-02-11T04:15:03;45.93;;;25.10;;
17441;SDS011;8838;50.144;8.176;2023-02-11T04:17:31;43.37;;;23.70;;
17441;SDS011;8838;50.144;8.176;2023-02-11T04:19:57;48.33;;;25.27;;
17441;SDS011;8838;50.144;8.176;2023-02-11T04:22:24;46.83;;;25.50;;
17441;SDS011;8838;50.144;8.176;2023-02-11T04:24:52;51.27;;;26.67;;
17441;SDS011;8838;50.144;8.176;2023-02-11T04:27:19;51.90;;;27.27;;
17441;SDS011;8838;50.144;8.176;2023-02-11T04:29:46;53.07;;;26.43;;
17441;SDS011;8838;50.144;8.176;2023-02-11T04:32:13;53.43;;;26.33;;
17441;SDS011;8838;50.144;8.176;2023-02-11T04:34:40;50.53;;;27.07;;
17441;SDS011;8838;50.144;8.176;2023-02-11T04:37:06;48.47;;;25.33;;
17441;SDS011;8838;50.144;8.176;2023-02-11T04:39:33;50.67;;;25.53;;
17441;SDS011;8838;50.144;8.176;2023-02-11T04:42:02;54.63;;;27.53;;
17441;SDS011;8838;50.144;8.176;2023-02-11T04:44:29;48.57;;;26.90;;
17441;SDS011;8838;50.144;8.176;2023-02-11T04:46:56;50.77;;;26.83;;
17441;SDS011;8838;50.144;8.176;2023-02-11T04:49:22;49.77;;;27.27;;
17441;SDS011;8838;50.144;8.176;2023-02-11T04:51:49;49.90;;;26.43;;
17441;SDS011;8838;50.144;8.176;2023-02-11T04:54:16;46.20;;;26.10;;
17441;SDS011;8838;50.144;8.176;2023-02-11T04:56:44;53.40;;;26.90;;
17441;SDS011;8838;50.144;8.176;2023-02-11T04:59:12;52.07;;;26.93;;
17441;SDS011;8838;50.144;8.176;2023-02-11T05:01:39;47.00;;;25.90;;
17441;SDS011;8838;50.144;8.176;2023-02-11T05:04:05;50.67;;;26.27;;
17441;SDS011;8838;50.144;8.176;2023-02-11T05:06:32;49.93;;;25.80;;
17441;SDS011;8838;50.144;8.176;2023-02-11T05:08:59;51.20;;;26.90;;
17441;SDS011;8838;50.144;8.176;2023-02-11T05:11:26;51.00;;;27.20;;
17441;SDS011;8838;50.144;8.176;2023-02-11T05:13:52;49.60;;;25.00;;
17441;SDS011;8838;50.144;8.176;2023-02-11T05:16:21;53.43;;;27.17;;
17441;SDS011;8838;50.144;8.176;2023-02-11T05:18:47;48.13;;;26.67;;
17441;SDS011;8838;50.144;8.176;2023-02-11T05:21:15;61.27;;;29.73;;
17441;SDS011;8838;50.144;8.176;2023-02-11T05:23:44;52.93;;;27.57;;
17441;SDS011;8838;50.144;8.176;2023-02-11T05:26:11;56.97;;;29.47;;
17441;SDS011;8838;50.144;8.176;2023-02-11T05:28:39;50.50;;;27.77;;
17441;SDS011;8838;50.144;8.176;2023-02-11T05:31:06;55.23;;;28.50;;
17441;SDS011;8838;50.144;8.176;2023-02-11T05:33:35;70.43;;;32.17;;
17441;SDS011;8838;50.144;8.176;2023-02-11T05:36:03;59.23;;;30.83;;
17441;SDS011;8838;50.144;8.176;2023-02-11T05:38:32;58.63;;;29.73;;
17441;SDS011;8838;50.144;8.176;2023-02-11T05:40:59;59.10;;;31.30;;
17441;SDS011;8838;50.144;8.176;2023-02-11T05:43:27;66.27;;;31.87;;
17441;SDS011;8838;50.144;8.176;2023-02-11T05:45:53;61.17;;;30.90;;
17441;SDS011;8838;50.144;8.176;2023-02-11T05:48:21;59.50;;;31.10;;
17441;SDS011;8838;50.144;8.176;2023-02-11T05:50:49;64.50;;;31.47;;
17441;SDS011;8838;50.144;8.176;2023-02-11T05:53:16;62.30;;;32.87;;
17441;SDS011;8838;50.144;8.176;2023-02-11T05:55:43;59.07;;;30.60;;
17441;SDS011;8838;50.144;8.176;2023-02-11T05:58:09;63.43;;;31.00;;
17441;SDS011;8838;50.144;8.176;2023-02-11T06:00:36;59.07;;;31.57;;
17441;SDS011;8838;50.144;8.176;2023-02-11T06:03:03;60.27;;;31.00;;
17441;SDS011;8838;50.144;8.176;2023-02-11T06:05:30;65.53;;;32.17;;
17441;SDS011;8838;50.144;8.176;2023-02-11T06:07:58;63.60;;;31.83;;
17441;SDS011;8838;50.144;8.176;2023-02-11T06:10:25;66.97;;;34.93;;
17441;SDS011;8838;50.144;8.176;2023-02-11T06:12:52;67.93;;;33.20;;
17441;SDS011;8838;50.144;8.176;2023-02-11T06:15:19;64.77;;;33.47;;
17441;SDS011;8838;50.144;8.176;2023-02-11T06:17:46;67.87;;;34.13;;
17441;SDS011;8838;50.144;8.176;2023-02-11T06:20:13;65.70;;;33.50;;
17441;SDS011;8838;50.144;8.176;2023-02-11T06:22:39;63.20;;;32.17;;
17441;SDS011;8838;50.144;8.176;2023-02-11T06:25:08;63.70;;;34.37;;
17441;SDS011;8838;50.144;8.176;2023-02-11T06:27:36;63.83;;;33.13;;
17441;SDS011;8838;50.144;8.176;2023-02-11T06:30:03;65.40;;;32.37;;
17441;SDS011;8838;50.144;8.176;2023-02-11T06:32:30;66.77;;;32.10;;
17441;SDS011;8838;50.144;8.176;2023-02-11T06:34:57;71.03;;;33.60;;
17441;SDS011;8838;50.144;8.176;2023-02-11T06:37:24;66.63;;;33.90;;
17441;SDS011;8838;50.144;8.176;2023-02-11T06:39:51;67.27;;;34.57;;
17441;SDS011;8838;50.144;8.176;2023-02-11T06:42:19;72.00;;;34.80;;
17441;SDS011;8838;50.144;8.176;2023-02-11T06:44:45;61.30;;;32.47;;
17441;SDS011;8838;50.144;8.176;2023-02-11T06:47:12;55.43;;;29.07;;
17441;SDS011;8838;50.144;8.176;2023-02-11T06:49:39;60.80;;;31.00;;
17441;SDS011;8838;50.144;8.176;2023-02-11T06:52:06;58.43;;;30.97;;
17441;SDS011;8838;50.144;8.176;2023-02-11T06:54:33;59.93;;;31.13;;
17441;SDS011;8838;50.144;8.176;2023-02-11T06:56:59;64.40;;;31.80;;
17441;SDS011;8838;50.144;8.176;2023-02-11T06:59:28;63.17;;;31.40;;
17441;SDS011;8838;50.144;8.176;2023-02-11T07:01:55;67.40;;;32.77;;
17441;SDS011;8838;50.144;8.176;2023-02-11T07:04:21;67.80;;;34.10;;
17441;SDS011;8838;50.144;8.176;2023-02-11T07:06:48;62.77;;;32.23;;
17441;SDS011;8838;50.144;8.176;2023-02-11T07:09:15;63.27;;;32.00;;
17441;SDS011;8838;50.144;8.176;2023-02-11T07:11:42;67.30;;;33.83;;
17441;SDS011;8838;50.144;8.176;2023-02-11T07:14:08;68.13;;;32.97;;
17441;SDS011;8838;50.144;8.176;2023-02-11T07:16:38;66.77;;;33.77;;
17441;SDS011;8838;50.144;8.176;2023-02-11T07:19:05;66.60;;;33.77;;
17441;SDS011;8838;50.144;8.176;2023-02-11T07:21:32;63.17;;;33.40;;
17441;SDS011;8838;50.144;8.176;2023-02-11T07:24:00;69.23;;;33.57;;
17441;SDS011;8838;50.144;8.176;2023-02-11T07:26:30;71.90;;;34.20;;
17441;SDS011;8838;50.144;8.176;2023-02-11T07:28:57;67.13;;;34.90;;
17441;SDS011;8838;50.144;8.176;2023-02-11T07:31:25;70.80;;;33.87;;
17441;SDS011;8838;50.144;8.176;2023-02-11T07:33:55;66.10;;;33.13;;
17441;SDS011;8838;50.144;8.176;2023-02-11T07:36:24;59.97;;;32.33;;
17441;SDS011;8838;50.144;8.176;2023-02-11T07:38:51;59.97;;;31.37;;
17441;SDS011;8838;50.144;8.176;2023-02-11T07:41:19;61.97;;;30.63;;
17441;SDS011;8838;50.144;8.176;2023-02-11T07:43:48;61.73;;;32.67;;
17441;SDS011;8838;50.144;8.176;2023-02-11T07:46:16;58.17;;;29.97;;
17441;SDS011;8838;50.144;8.176;2023-02-11T07:48:45;56.67;;;30.70;;
17441;SDS011;8838;50.144;8.176;2023-02-11T07:51:13;57.50;;;29.97;;
17441;SDS011;8838;50.144;8.176;2023-02-11T07:53:42;56.47;;;29.60;;
17441;SDS011;8838;50.144;8.176;2023-02-11T07:56:09;54.73;;;29.13;;
17441;SDS011;8838;50.144;8.176;2023-02-11T07:58:37;54.53;;;28.30;;
17441;SDS011;8838;50.144;8.176;2023-02-11T08:01:06;56.93;;;29.53;;
17441;SDS011;8838;50.144;8.176;2023-02-11T08:03:35;56.00;;;30.37;;
17441;SDS011;8838;50.144;8.176;2023-02-11T08:06:02;55.80;;;29.23;;
17441;SDS011;8838;50.144;8.176;2023-02-11T08:08:31;54.73;;;29.00;;
17441;SDS011;8838;50.144;8.176;2023-02-11T08:11:02;54.97;;;29.13;;
17441;SDS011;8838;50.144;8.176;2023-02-11T08:13:31;58.37;;;29.60;;
17441;SDS011;8838;50.144;8.176;2023-02-11T08:15:58;51.70;;;28.77;;
17441;SDS011;8838;50.144;8.176;2023-02-11T08:18:25;48.73;;;27.37;;
17441;SDS011;8838;50.144;8.176;2023-02-11T08:20:52;56.43;;;29.00;;
17441;SDS011;8838;50.144;8.176;2023-02-11T08:23:19;53.37;;;28.43;;
17441;SDS011;8838;50.144;8.176;2023-02-11T08:25:47;49.50;;;27.33;;
17441;SDS011;8838;50.144;8.176;2023-02-11T08:28:14;49.97;;;26.57;;
17441;SDS011;8838;50.144;8.176;2023-02-11T08:30:41;54.93;;;28.70;;
17441;SDS011;8838;50.144;8.176;2023-02-11T08:33:08;51.63;;;28.80;;
17441;SDS011;8838;50.144;8.176;2023-02-11T08:35:34;56.53;;;28.07;;
17441;SDS011;8838;50.144;8.176;2023-02-11T08:38:03;53.37;;;27.37;;
17441;SDS011;8838;50.144;8.176;2023-02-11T08:40:30;49.40;;;26.90;;
17441;SDS011;8838;50.144;8.176;2023-02-11T08:42:58;49.93;;;27.20;;
17441;SDS011;8838;50.144;8.176;2023-02-11T08:45:25;51.30;;;27.50;;
17441;SDS011;8838;50.144;8.176;2023-02-11T08:47:52;48.50;;;26.83;;
17441;SDS011;8838;50.144;8.176;2023-02-11T08:50:19;47.93;;;26.07;;
17441;SDS011;8838;50.144;8.176;2023-02-11T08:52:46;49.23;;;27.23;;
17441;SDS011;8838;50.144;8.176;2023-02-11T08:55:13;56.90;;;27.83;;
17441;SDS011;8838;50.144;8.176;2023-02-11T08:57:40;50.00;;;26.03;;
17441;SDS011;8838;50.144;8.176;2023-02-11T09:00:09;51.67;;;27.00;;
17441;SDS011;8838;50.144;8.176;2023-02-11T09:02:37;47.47;;;25.50;;
17441;SDS011;8838;50.144;8.176;2023-02-11T09:05:04;49.43;;;26.23;;
17441;SDS011;8838;50.144;8.176;2023-02-11T09:07:31;47.83;;;25.77;;
17441;SDS011;8838;50.144;8.176;2023-02-11T09:09:58;47.27;;;25.43;;
17441;SDS011;8838;50.144;8.176;2023-02-11T09:12:25;43.73;;;24.53;;
17441;SDS011;8838;50.144;8.176;2023-02-11T09:14:51;48.90;;;25.60;;
17441;SDS011;8838;50.144;8.176;2023-02-11T09:17:20;48.37;;;25.63;;
17441;SDS011;8838;50.144;8.176;2023-02-11T09:19:47;47.13;;;24.83;;
17441;SDS011;8838;50.144;8.176;2023-02-11T09:22:13;48.10;;;24.70;;
17441;SDS011;8838;50.144;8.176;2023-02-11T09:24:40;43.23;;;24.03;;
17441;SDS011;8838;50.144;8.176;2023-02-11T09:27:07;44.93;;;24.93;;
17441;SDS011;8838;50.144;8.176;2023-02-11T09:29:34;43.60;;;24.33;;
17441;SDS011;8838;50.144;8.176;2023-02-11T09:32:01;47.70;;;25.30;;
17441;SDS011;8838;50.144;8.176;2023-02-11T09:34:30;46.80;;;25.17;;
17441;SDS011;8838;50.144;8.176;2023-02-11T09:36:57;46.13;;;24.77;;
17441;SDS011;8838;50.144;8.176;2023-02-11T09:39:24;46.87;;;24.20;;
17441;SDS011;8838;50.144;8.176;2023-02-11T09:42:19;43.40;;;23.90;;
17441;SDS011;8838;50.144;8.176;2023-02-11T09:45:17;45.20;;;22.43;;
17441;SDS011;8838;50.144;8.176;2023-02-11T09:47:46;52.37;;;24.17;;
17441;SDS011;8838;50.144;8.176;2023-02-11T09:52:52;44.67;;;23.10;;
17441;SDS011;8838;50.144;8.176;2023-02-11T09:55:24;46.23;;;23.13;;
17441;SDS011;8838;50.144;8.176;2023-02-11T09:57:53;40.23;;;21.77;;
17441;SDS011;8838;50.144;8.176;2023-02-11T10:00:23;44.43;;;23.43;;
17441;SDS011;8838;50.144;8.176;2023-02-11T10:03:00;41.17;;;22.43;;
17441;SDS011;8838;50.144;8.176;2023-02-11T10:05:45;44.10;;;23.47;;
17441;SDS011;8838;50.144;8.176;2023-02-11T10:08:26;41.27;;;23.00;;
17441;SDS011;8838;50.144;8.176;2023-02-11T10:11:00;43.43;;;22.97;;
17441;SDS011;8838;50.144;8.176;2023-02-11T10:13:40;40.63;;;22.57;;
17441;SDS011;8838;50.144;8.176;2023-02-11T10:16:20;40.63;;;21.67;;
17441;SDS011;8838;50.144;8.176;2023-02-11T10:19:07;42.43;;;22.33;;
17441;SDS011;8838;50.144;8.176;2023-02-11T10:21:46;39.00;;;21.77;;
17441;SDS011;8838;50.144;8.176;2023-02-11T10:24:22;46.57;;;23.30;;
17441;SDS011;8838;50.144;8.176;2023-02-11T10:26:52;42.93;;;23.90;;
17441;SDS011;8838;50.144;8.176;2023-02-11T10:29:23;44.73;;;22.93;;
17441;SDS011;8838;50.144;8.176;2023-02-11T10:31:58;46.33;;;22.73;;
17441;SDS011;8838;50.144;8.176;2023-02-11T10:34:27;39.70;;;22.07;;
17441;SDS011;8838;50.144;8.176;2023-02-11T10:36:55;43.57;;;22.03;;
17441;SDS011;8838;50.144;8.176;2023-02-11T10:39:23;38.07;;;20.83;;
17441;SDS011;8838;50.144;8.176;2023-02-11T10:41:52;51.87;;;27.83;;
17441;SDS011;8838;50.144;8.176;2023-02-11T10:44:23;40.03;;;21.93;;
17441;SDS011;8838;50.144;8.176;2023-02-11T10:46:52;40.77;;;21.53;;
17441;SDS011;8838;50.144;8.176;2023-02-11T10:49:32;44.50;;;21.97;;
17441;SDS011;8838;50.144;8.176;2023-02-11T10:54:57;42.30;;;22.10;;
17441;SDS011;8838;50.144;8.176;2023-02-11T10:57:27;43.53;;;22.50;;
17441;SDS011;8838;50.144;8.176;2023-02-11T10:59:57;46.23;;;22.50;;
17441;SDS011;8838;50.144;8.176;2023-02-11T11:02:27;41.40;;;22.90;;
17441;SDS011;8838;50.144;8.176;2023-02-11T11:05:00;43.07;;;23.70;;
17441;SDS011;8838;50.144;8.176;2023-02-11T11:07:30;42.23;;;21.90;;
17441;SDS011;8838;50.144;8.176;2023-02-11T11:10:00;42.53;;;22.13;;
17441;SDS011;8838;50.144;8.176;2023-02-11T11:12:29;39.20;;;21.37;;
17441;SDS011;8838;50.144;8.176;2023-02-11T11:15:00;38.93;;;20.83;;
17441;SDS011;8838;50.144;8.176;2023-02-11T11:17:29;41.27;;;21.43;;
17441;SDS011;8838;50.144;8.176;2023-02-11T11:20:12;40.27;;;22.00;;
17441;SDS011;8838;50.144;8.176;2023-02-11T11:22:42;36.53;;;19.50;;
17441;SDS011;8838;50.144;8.176;2023-02-11T11:25:20;32.57;;;18.70;;
17441;SDS011;8838;50.144;8.176;2023-02-11T11:27:49;36.33;;;20.17;;
17441;SDS011;8838;50.144;8.176;2023-02-11T11:30:17;33.63;;;19.83;;
17441;SDS011;8838;50.144;8.176;2023-02-11T11:32:44;34.70;;;19.23;;
17441;SDS011;8838;50.144;8.176;2023-02-11T11:35:22;33.43;;;19.50;;
17441;SDS011;8838;50.144;8.176;2023-02-11T11:37:54;37.13;;;20.33;;
17441;SDS011;8838;50.144;8.176;2023-02-11T11:40:24;37.23;;;20.13;;
17441;SDS011;8838;50.144;8.176;2023-02-11T11:43:13;35.27;;;20.20;;
17441;SDS011;8838;50.144;8.176;2023-02-11T11:45:53;32.67;;;18.77;;
17441;SDS011;8838;50.144;8.176;2023-02-11T11:48:22;35.47;;;19.00;;
17441;SDS011;8838;50.144;8.176;2023-02-11T11:50:52;36.73;;;20.53;;
17441;SDS011;8838;50.144;8.176;2023-02-11T11:53:24;35.03;;;20.30;;
17441;SDS011;8838;50.144;8.176;2023-02-11T11:55:58;39.13;;;19.97;;
17441;SDS011;8838;50.144;8.176;2023-02-11T11:58:29;32.67;;;18.20;;
17441;SDS011;8838;50.144;8.176;2023-02-11T12:00:59;30.67;;;18.73;;
17441;SDS011;8838;50.144;8.176;2023-02-11T12:04:03;32.33;;;18.20;;
17441;SDS011;8838;50.144;8.176;2023-02-11T12:06:52;35.20;;;18.70;;
17441;SDS011;8838;50.144;8.176;2023-02-11T12:09:36;37.80;;;18.33;;
17441;SDS011;8838;50.144;8.176;2023-02-11T12:12:20;35.10;;;19.60;;
17441;SDS011;8838;50.144;8.176;2023-02-11T12:14:58;32.77;;;17.60;;
17441;SDS011;8838;50.144;8.176;2023-02-11T12:17:41;32.20;;;17.80;;
17441;SDS011;8838;50.144;8.176;2023-02-11T12:20:22;36.20;;;18.43;;
17441;SDS011;8838;50.144;8.176;2023-02-11T12:23:09;32.80;;;18.10;;
17441;SDS011;8838;50.144;8.176;2023-02-11T12:25:53;31.67;;;17.83;;
17441;SDS011;8838;50.144;8.176;2023-02-11T12:28:28;29.33;;;16.53;;
17441;SDS011;8838;50.144;8.176;2023-02-11T12:31:05;30.43;;;17.73;;
17441;SDS011;8838;50.144;8.176;2023-02-11T12:33:47;32.57;;;16.90;;
17441;SDS011;8838;50.144;8.176;2023-02-11T12:36:26;31.30;;;17.57;;
17441;SDS011;8838;50.144;8.176;2023-02-11T12:39:09;31.07;;;17.47;;
17441;SDS011;8838;50.144;8.176;2023-02-11T12:41:54;29.60;;;16.17;;
17441;SDS011;8838;50.144;8.176;2023-02-11T12:44:59;27.63;;;16.53;;
17441;SDS011;8838;50.144;8.176;2023-02-11T12:47:41;28.53;;;16.40;;
17441;SDS011;8838;50.144;8.176;2023-02-11T12:50:17;29.07;;;16.50;;
17441;SDS011;8838;50.144;8.176;2023-02-11T12:52:54;28.63;;;16.13;;
17441;SDS011;8838;50.144;8.176;2023-02-11T12:55:32;25.97;;;15.00;;
17441;SDS011;8838;50.144;8.176;2023-02-11T12:58:03;29.87;;;15.80;;
17441;SDS011;8838;50.144;8.176;2023-02-11T13:00:37;28.23;;;15.17;;
17441;SDS011;8838;50.144;8.176;2023-02-11T13:03:10;25.17;;;14.97;;
17441;SDS011;8838;50.144;8.176;2023-02-11T13:05:42;25.40;;;15.30;;
17441;SDS011;8838;50.144;8.176;2023-02-11T13:08:13;24.40;;;15.20;;
17441;SDS011;8838;50.144;8.176;2023-02-11T13:10:45;27.53;;;15.80;;
17441;SDS011;8838;50.144;8.176;2023-02-11T13:13:17;25.77;;;14.87;;
17441;SDS011;8838;50.144;8.176;2023-02-11T13:15:47;26.00;;;14.77;;
17441;SDS011;8838;50.144;8.176;2023-02-11T13:18:23;26.83;;;15.87;;
17441;SDS011;8838;50.144;8.176;2023-02-11T13:21:04;25.80;;;15.13;;
17441;SDS011;8838;50.144;8.176;2023-02-11T13:23:43;25.53;;;14.67;;
17441;SDS011;8838;50.144;8.176;2023-02-11T13:26:15;26.40;;;15.37;;
17441;SDS011;8838;50.144;8.176;2023-02-11T13:28:50;27.03;;;14.90;;
17441;SDS011;8838;50.144;8.176;2023-02-11T13:31:22;25.50;;;14.80;;
17441;SDS011;8838;50.144;8.176;2023-02-11T13:33:51;27.23;;;15.00;;
17441;SDS011;8838;50.144;8.176;2023-02-11T13:36:22;25.60;;;13.77;;
17441;SDS011;8838;50.144;8.176;2023-02-11T13:38:55;25.93;;;15.03;;
17441;SDS011;8838;50.144;8.176;2023-02-11T13:41:27;26.67;;;14.80;;
17441;SDS011;8838;50.144;8.176;2023-02-11T13:44:02;26.60;;;14.53;;
17441;SDS011;8838;50.144;8.176;2023-02-11T13:46:48;27.90;;;14.70;;
17441;SDS011;8838;50.144;8.176;2023-02-11T13:49:29;25.93;;;15.17;;
17441;SDS011;8838;50.144;8.176;2023-02-11T13:51:59;28.77;;;14.67;;
17441;SDS011;8838;50.144;8.176;2023-02-11T13:54:30;24.07;;;14.43;;
17441;SDS011;8838;50.144;8.176;2023-02-11T13:57:21;26.27;;;14.70;;
17441;SDS011;8838;50.144;8.176;2023-02-11T13:59:57;25.83;;;14.77;;
17441;SDS011;8838;50.144;8.176;2023-02-11T14:02:26;25.30;;;13.97;;
17441;SDS011;8838;50.144;8.176;2023-02-11T14:05:20;25.90;;;14.50;;
17441;SDS011;8838;50.144;8.176;2023-02-11T14:08:12;27.43;;;15.37;;
17441;SDS011;8838;50.144;8.176;2023-02-11T14:10:59;25.00;;;14.80;;
17441;SDS011;8838;50.144;8.176;2023-02-11T14:13:27;28.30;;;15.30;;
17441;SDS011;8838;50.144;8.176;2023-02-11T14:16:06;24.57;;;13.53;;
17441;SDS011;8838;50.144;8.176;2023-02-11T14:21:32;25.73;;;14.57;;
17441;SDS011;8838;50.144;8.176;2023-02-11T14:27:13;24.33;;;13.57;;
17441;SDS011;8838;50.144;8.176;2023-02-11T14:29:48;23.90;;;14.30;;
17441;SDS011;8838;50.144;8.176;2023-02-11T14:32:28;21.80;;;13.97;;
17441;SDS011;8838;50.144;8.176;2023-02-11T14:35:08;26.23;;;14.50;;
17441;SDS011;8838;50.144;8.176;2023-02-11T14:37:43;26.27;;;14.60;;
17441;SDS011;8838;50.144;8.176;2023-02-11T14:40:17;29.33;;;15.00;;
17441;SDS011;8838;50.144;8.176;2023-02-11T14:42:52;28.27;;;14.87;;
17441;SDS011;8838;50.144;8.176;2023-02-11T14:45:22;25.00;;;14.13;;
17441;SDS011;8838;50.144;8.176;2023-02-11T14:47:52;24.57;;;14.00;;
17441;SDS011;8838;50.144;8.176;2023-02-11T14:50:26;25.80;;;14.40;;
17441;SDS011;8838;50.144;8.176;2023-02-11T14:52:57;24.97;;;14.20;;
17441;SDS011;8838;50.144;8.176;2023-02-11T14:55:29;21.60;;;13.30;;
17441;SDS011;8838;50.144;8.176;2023-02-11T14:58:11;26.37;;;14.47;;
17441;SDS011;8838;50.144;8.176;2023-02-11T15:00:50;23.13;;;13.17;;
17441;SDS011;8838;50.144;8.176;2023-02-11T15:03:31;24.07;;;13.20;;
17441;SDS011;8838;50.144;8.176;2023-02-11T15:06:00;21.97;;;13.53;;
17441;SDS011;8838;50.144;8.176;2023-02-11T15:08:30;22.20;;;12.30;;
17441;SDS011;8838;50.144;8.176;2023-02-11T15:10:59;22.10;;;12.97;;
17441;SDS011;8838;50.144;8.176;2023-02-11T15:13:28;22.50;;;13.23;;
17441;SDS011;8838;50.144;8.176;2023-02-11T15:15:58;24.97;;;14.10;;